createdAt,value
2022-08-05T00:00:26.032Z,22.94
2022-08-05T00:04:23.115Z,22.83
2022-08-05T00:08:35.244Z,22.86
2022-08-05T00:12:33.122Z,22.77
2022-08-05T00:16:53.140Z,22.71
2022-08-05T00:20:51.987Z,22.58
2022-08-05T00:24:55.159Z,22.50
2022-08-05T00:28:52.657Z,22.46
2022-08-05T00:32:49.944Z,22.31
2022-08-05T00:37:09.765Z,22.23
2022-08-05T00:41:07.504Z,22.32
2022-08-05T00:45:11.536Z,22.18
2022-08-05T00:49:08.922Z,22.15
2022-08-05T00:54:00.618Z,22.15
2022-08-05T00:57:38.092Z,22.06
2022-08-05T01:01:42.842Z,22.00
2022-08-05T01:05:46.327Z,22.00
2022-08-05T01:09:43.900Z,21.89
2022-08-05T01:14:09.713Z,21.86
2022-08-05T01:18:15.858Z,21.78
2022-08-05T01:22:41.229Z,21.76
2022-08-05T01:26:56.689Z,21.77
2022-08-05T01:31:15.154Z,21.64
2022-08-05T01:35:51.132Z,21.66
2022-08-05T01:39:47.999Z,21.64
2022-08-05T01:43:47.012Z,21.57
2022-08-05T01:47:49.233Z,21.45
2022-08-05T01:51:59.023Z,21.51
2022-08-05T01:56:04.500Z,21.35
2022-08-05T02:00:05.084Z,21.25
2022-08-05T02:04:11.776Z,21.24
2022-08-05T02:08:08.991Z,21.10
2022-08-05T02:12:58.832Z,21.10
2022-08-05T02:17:29.931Z,20.98
2022-08-05T02:21:43.057Z,20.98
2022-08-05T02:25:50.257Z,20.86
2022-08-05T02:29:58.615Z,20.85
2022-08-05T02:34:10.116Z,20.92
2022-08-05T02:38:10.399Z,20.96
2022-08-05T02:42:11.511Z,20.85
2022-08-05T02:46:28.410Z,20.94
2022-08-05T02:50:27.995Z,20.92
2022-08-05T02:54:35.999Z,20.92
2022-08-05T02:58:37.251Z,20.73
2022-08-05T03:02:45.265Z,20.78
2022-08-05T03:06:56.031Z,20.68
2022-08-05T03:11:53.470Z,20.70
2022-08-05T03:15:13.193Z,20.59
2022-08-05T03:19:17.143Z,20.42
2022-08-05T03:23:28.410Z,20.52
2022-08-05T03:27:29.514Z,20.63
2022-08-05T03:31:56.228Z,20.47
2022-08-05T03:35:57.328Z,20.61
2022-08-05T03:40:01.920Z,20.47
2022-08-05T03:44:11.560Z,20.52
2022-08-05T03:48:09.161Z,20.49
2022-08-05T03:52:49.192Z,20.50
2022-08-05T03:56:42.194Z,20.64
2022-08-05T04:00:42.020Z,20.47
2022-08-05T04:04:43.434Z,20.50
2022-08-05T04:08:43.897Z,20.60
2022-08-05T04:12:46.339Z,20.51
2022-08-05T04:16:44.666Z,20.54
2022-08-05T04:20:42.129Z,20.43
2022-08-05T04:24:52.266Z,20.55
2022-08-05T04:28:51.291Z,20.51
2022-08-05T04:32:49.035Z,20.56
2022-08-05T04:36:50.032Z,20.39
2022-08-05T04:40:50.729Z,20.43
2022-08-05T04:44:48.033Z,20.24
2022-08-05T04:48:45.088Z,20.37
2022-08-05T04:52:43.099Z,20.51
2022-08-05T04:56:41.889Z,20.42
2022-08-05T05:00:41.852Z,20.70
2022-08-05T05:04:47.857Z,20.90
2022-08-05T05:08:50.004Z,21.14
2022-08-05T05:12:47.211Z,21.15
2022-08-05T05:16:47.841Z,21.44
2022-08-05T05:20:47.947Z,21.71
2022-08-05T05:24:57.318Z,21.97
2022-08-05T05:28:57.032Z,22.31
2022-08-05T05:32:54.123Z,22.55
2022-08-05T05:36:51.810Z,22.80
2022-08-05T05:40:51.237Z,23.12
2022-08-05T05:44:48.609Z,23.24
2022-08-05T05:48:47.809Z,23.37
2022-08-05T05:52:47.410Z,23.46
2022-08-05T05:56:44.767Z,23.57
2022-08-05T06:00:45.760Z,23.85
2022-08-05T06:04:43.619Z,24.17
2022-08-05T06:08:49.123Z,24.43
2022-08-05T06:12:46.460Z,24.68
2022-08-05T06:16:44.224Z,24.91
2022-08-05T06:20:43.614Z,25.09
2022-08-05T06:24:46.688Z,25.19
2022-08-05T06:28:45.509Z,25.37
2022-08-05T06:32:43.992Z,25.42
2022-08-05T06:36:56.710Z,25.70
2022-08-05T06:40:55.306Z,25.82
2022-08-05T06:44:52.335Z,26.18
2022-08-05T06:48:58.671Z,26.72
2022-08-05T06:52:58.483Z,27.54
2022-08-05T06:57:13.860Z,28.15
2022-08-05T07:01:13.340Z,28.68
2022-08-05T07:05:18.482Z,29.08
2022-08-05T07:09:16.205Z,29.08
2022-08-05T07:13:56.950Z,29.09
2022-08-05T07:17:57.299Z,29.03
2022-08-05T07:22:02.782Z,28.98
2022-08-05T07:25:59.799Z,28.73
2022-08-05T07:30:28.053Z,28.76
2022-08-05T07:34:21.195Z,28.74
2022-08-05T07:38:32.924Z,28.82
2022-08-05T07:42:33.999Z,28.38
2022-08-05T07:46:33.780Z,28.31
2022-08-05T07:50:32.521Z,28.12
2022-08-05T07:54:33.563Z,28.28
2022-08-05T07:58:57.786Z,28.51
2022-08-05T08:03:13.737Z,28.70
2022-08-05T08:07:09.743Z,29.28
2022-08-05T08:11:08.836Z,29.70
2022-08-05T08:15:15.063Z,30.66
2022-08-05T08:20:10.135Z,30.99
2022-08-05T08:24:03.591Z,31.05
2022-08-05T08:27:47.793Z,31.36
2022-08-05T08:31:48.669Z,32.17
2022-08-05T08:35:53.066Z,33.08
2022-08-05T08:40:01.330Z,33.89
2022-08-05T08:45:24.265Z,34.32
2022-08-05T08:48:36.173Z,34.56
2022-08-05T08:52:39.604Z,33.13
2022-08-05T08:56:47.598Z,32.54
2022-08-05T09:00:48.673Z,32.64
2022-08-05T09:04:58.127Z,32.88
2022-08-05T09:09:04.384Z,32.79
2022-08-05T09:13:05.163Z,33.09
2022-08-05T09:17:40.526Z,32.58
2022-08-05T09:22:22.291Z,32.18
2022-08-05T09:26:01.504Z,32.04
2022-08-05T09:30:06.311Z,31.95
2022-08-05T09:34:10.320Z,31.67
2022-08-05T09:38:16.961Z,31.97
2022-08-05T09:42:23.930Z,33.35
2022-08-05T09:46:30.006Z,34.85
2022-08-05T09:50:45.186Z,35.67
2022-08-05T09:55:06.171Z,35.55
2022-08-05T09:59:17.580Z,35.72
2022-08-05T10:03:14.631Z,36.83
2022-08-05T10:07:25.043Z,36.10
2022-08-05T10:11:35.310Z,35.61
2022-08-05T10:15:36.760Z,36.03
2022-08-05T10:20:04.225Z,35.95
2022-08-05T10:23:59.252Z,36.29
2022-08-05T10:28:09.633Z,37.27
2022-08-05T10:32:54.149Z,37.78
2022-08-05T10:36:31.235Z,38.65
2022-08-05T10:40:46.385Z,37.69
2022-08-05T10:44:47.539Z,37.07
2022-08-05T10:48:56.933Z,37.91
2022-08-05T10:52:59.990Z,37.52
2022-08-05T10:56:57.290Z,36.16
2022-08-05T11:01:00.623Z,34.54
2022-08-05T11:05:04.804Z,33.65
2022-08-05T11:09:32.271Z,32.66
2022-08-05T11:13:55.075Z,32.17
2022-08-05T11:18:14.424Z,32.00
2022-08-05T11:22:49.892Z,31.95
2022-08-05T11:26:49.704Z,31.61
2022-08-05T11:30:58.236Z,32.09
2022-08-05T11:34:57.635Z,34.04
2022-08-05T11:38:57.750Z,37.11
2022-08-05T11:42:55.224Z,39.18
2022-08-05T11:46:58.113Z,39.87
2022-08-05T11:51:07.508Z,40.89
2022-08-05T11:55:10.592Z,41.67
2022-08-05T11:59:13.693Z,42.04
2022-08-05T12:03:28.965Z,40.46
2022-08-05T12:08:08.296Z,39.80
2022-08-05T12:11:53.655Z,39.96
2022-08-05T12:15:50.745Z,39.61
2022-08-05T12:20:25.340Z,38.39
2022-08-05T12:24:19.768Z,39.30
2022-08-05T12:28:37.902Z,39.91
2022-08-05T12:32:43.194Z,40.41
2022-08-05T12:36:48.513Z,41.52
2022-08-05T12:40:45.513Z,41.26
2022-08-05T12:44:44.922Z,41.18
2022-08-05T12:48:41.977Z,40.46
2022-08-05T12:52:42.271Z,40.15
2022-08-05T12:56:43.327Z,41.01
2022-08-05T13:02:00.355Z,41.80
2022-08-05T13:05:07.147Z,42.10
2022-08-05T13:09:13.878Z,43.18
2022-08-05T13:13:11.032Z,41.11
2022-08-05T13:17:41.212Z,40.00
2022-08-05T13:21:48.047Z,40.16
2022-08-05T13:25:52.206Z,40.67
2022-08-05T13:30:31.555Z,41.36
2022-08-05T13:34:23.188Z,40.92
2022-08-05T13:38:34.190Z,41.53
2022-08-05T13:42:33.645Z,42.52
2022-08-05T13:46:43.778Z,43.34
2022-08-05T13:50:48.077Z,42.98
2022-08-05T13:54:53.422Z,42.20
2022-08-05T13:58:53.084Z,41.43
2022-08-05T14:02:50.870Z,41.37
2022-08-05T14:06:48.146Z,42.15
2022-08-05T14:11:03.060Z,41.89
2022-08-05T14:15:00.622Z,42.14
2022-08-05T14:19:04.438Z,42.65
2022-08-05T14:23:01.778Z,41.65
2022-08-05T14:27:17.757Z,41.17
2022-08-05T14:31:17.256Z,40.65
2022-08-05T14:35:37.336Z,40.42
2022-08-05T14:39:49.451Z,40.31
2022-08-05T14:44:01.569Z,41.81
2022-08-05T14:48:05.463Z,43.18
2022-08-05T14:52:05.580Z,43.84
2022-08-05T14:56:07.440Z,42.59
2022-08-05T15:00:06.563Z,41.01
2022-08-05T15:04:06.678Z,40.56
2022-08-05T15:08:11.575Z,41.30
2022-08-05T15:12:16.929Z,42.06
2022-08-05T15:16:14.312Z,42.16
2022-08-05T15:20:15.606Z,43.43
2022-08-05T15:24:15.188Z,44.18
2022-08-05T15:28:15.774Z,44.66
2022-08-05T15:32:13.073Z,43.17
2022-08-05T15:36:17.629Z,41.77
2022-08-05T15:41:00.502Z,40.96
2022-08-05T15:44:42.297Z,40.87
2022-08-05T15:48:39.312Z,40.85
2022-08-05T15:52:53.676Z,39.72
2022-08-05T15:56:52.224Z,38.95
2022-08-05T16:00:57.038Z,38.60
2022-08-05T16:05:01.776Z,39.63
2022-08-05T16:08:59.304Z,40.05
2022-08-05T16:12:56.391Z,40.76
2022-08-05T16:16:53.787Z,40.73
2022-08-05T16:20:50.770Z,40.23
2022-08-05T16:24:51.804Z,39.68
2022-08-05T16:28:49.658Z,39.03
2022-08-05T16:32:49.163Z,39.02
2022-08-05T16:36:47.231Z,39.30
2022-08-05T16:40:47.727Z,39.72
2022-08-05T16:44:54.233Z,39.09
2022-08-05T16:48:55.546Z,38.03
2022-08-05T16:52:52.852Z,36.93
2022-08-05T16:56:53.670Z,36.43
2022-08-05T17:00:50.867Z,35.48
2022-08-05T17:04:48.007Z,34.95
2022-08-05T17:08:53.190Z,34.46
2022-08-05T17:12:52.432Z,35.31
2022-08-05T17:16:49.523Z,35.79
2022-08-05T17:20:50.962Z,36.31
2022-08-05T17:24:57.651Z,35.64
2022-08-05T17:28:55.406Z,35.24
2022-08-05T17:32:53.089Z,34.84
2022-08-05T17:36:50.100Z,34.47
2022-08-05T17:40:47.564Z,34.08
2022-08-05T17:44:50.382Z,33.44
2022-08-05T17:48:48.390Z,32.89
2022-08-05T17:52:52.835Z,32.44
2022-08-05T17:56:51.394Z,32.00
2022-08-05T18:00:50.873Z,31.61
2022-08-05T18:04:51.297Z,31.38
2022-08-05T18:08:52.904Z,31.08
2022-08-05T18:12:50.228Z,30.74
2022-08-05T18:16:51.970Z,30.18
2022-08-05T18:20:49.551Z,30.03
2022-08-05T18:24:52.207Z,29.69
2022-08-05T18:28:49.527Z,29.47
2022-08-05T18:32:53.169Z,29.23
2022-08-05T18:36:50.889Z,28.93
2022-08-05T18:41:56.590Z,28.86
2022-08-05T18:45:09.646Z,28.61
2022-08-05T18:49:30.346Z,28.34
2022-08-05T18:53:29.574Z,28.24
2022-08-05T18:57:43.308Z,28.12
2022-08-05T19:01:57.033Z,28.08
2022-08-05T19:06:12.057Z,27.73
2022-08-05T19:10:12.775Z,27.82
2022-08-05T19:14:52.291Z,27.83
2022-08-05T19:18:28.745Z,27.65
2022-08-05T19:22:27.752Z,27.66
2022-08-05T19:26:24.955Z,27.68
2022-08-05T19:30:22.295Z,27.60
2022-08-05T19:34:20.924Z,27.58
2022-08-05T19:38:26.460Z,27.53
2022-08-05T19:42:26.238Z,27.46
2022-08-05T19:46:34.711Z,27.42
2022-08-05T19:50:31.844Z,27.38
2022-08-05T19:54:31.941Z,27.21
2022-08-05T19:58:30.095Z,27.24
2022-08-05T20:02:31.315Z,27.28
2022-08-05T20:06:29.640Z,27.24
2022-08-05T20:10:26.772Z,27.05
2022-08-05T20:14:27.151Z,26.90
2022-08-05T20:18:33.424Z,27.09
2022-08-05T20:22:33.323Z,27.03
2022-08-05T20:26:31.340Z,26.89
2022-08-05T20:30:30.251Z,26.82
2022-08-05T20:34:27.301Z,26.77
2022-08-05T20:38:27.691Z,26.69
2022-08-05T20:42:26.072Z,26.55
2022-08-05T20:46:25.608Z,26.18
2022-08-05T20:50:23.110Z,25.85
2022-08-05T20:54:20.138Z,25.29
2022-08-05T21:03:07.258Z,24.88
2022-08-05T21:07:05.158Z,24.71
2022-08-05T21:11:09.194Z,24.49
2022-08-05T21:15:08.385Z,24.44
2022-08-05T21:19:06.391Z,24.47
2022-08-05T21:23:04.836Z,24.09
2022-08-05T21:27:02.316Z,24.07
2022-08-05T21:30:59.432Z,24.06
2022-08-05T21:35:17.563Z,23.96
2022-08-05T21:39:17.057Z,23.51
2022-08-05T21:43:25.060Z,23.34
2022-08-05T21:47:55.038Z,23.16
2022-08-05T21:52:28.433Z,23.03
2022-08-05T21:56:35.194Z,22.34
2022-08-05T22:01:00.742Z,22.32
2022-08-05T22:05:20.872Z,22.89
2022-08-05T22:09:24.336Z,22.78
2022-08-05T22:14:34.437Z,22.72
2022-08-05T22:17:59.851Z,22.60
2022-08-05T22:21:57.319Z,22.44
2022-08-05T22:26:15.096Z,22.11
2022-08-05T22:30:17.145Z,21.93
2022-08-05T22:34:25.462Z,21.63
2022-08-05T22:38:28.527Z,21.39
2022-08-05T22:42:26.413Z,21.13
2022-08-05T22:46:27.522Z,20.62
2022-08-05T22:50:28.259Z,19.76
2022-08-05T22:54:25.380Z,19.22
2022-08-05T22:58:28.335Z,19.06
2022-08-05T23:02:29.508Z,19.06
2022-08-05T23:06:26.961Z,18.91
2022-08-05T23:10:25.872Z,18.79
2022-08-05T23:14:22.944Z,19.08
2022-08-05T23:18:29.459Z,18.91
2022-08-05T23:22:29.443Z,18.92
2022-08-05T23:26:27.993Z,18.31
2022-08-05T23:30:27.131Z,17.66
2022-08-05T23:34:26.904Z,17.50
2022-08-05T23:38:26.721Z,17.61
2022-08-05T23:42:29.286Z,17.39
2022-08-05T23:46:26.757Z,16.80
2022-08-05T23:50:23.935Z,16.88
2022-08-05T23:54:30.117Z,16.82
2022-08-05T23:58:32.594Z,16.69
